Time;durP1;ratioP1;P1;durP2;ratioP2;P2;SDS_P1;SDS_P2;PMS_P1;PMS_P2;Temp;Humidity;BMP_temperature;BMP_pressure;BME280_temperature;BME280_humidity;BME280_pressure;Samples;Min_cycle;Max_cycle;Signal;HPM_P1;HPM_P2
2023/05/12 00:01:38;;;;;;;;;;;;;;;13.38;100.00;101600.41;5167714;28;19992;-76
2023/05/12 00:04:08;;;;;;;;;;;;;;;13.38;100.00;101605.81;5168316;28;19914;-77
2023/05/12 00:06:39;;;;;;;;;;;;;;;13.38;100.00;101603.94;5165413;28;19914;-78
2023/05/12 00:09:09;;;;;;;;;;;;;;;13.36;100.00;101610.53;5167465;28;19925;-77
2023/05/12 00:11:40;;;;;;;;;;;;;;;13.33;100.00;101605.47;5165982;28;19914;-77
2023/05/12 00:14:10;;;;;;;;;;;;;;;13.33;100.00;101608.16;5167811;28;19925;-77
2023/05/12 00:16:41;;;;;;;;;;;;;;;13.32;100.00;101619.94;5166846;28;19972;-77
2023/05/12 00:19:11;;;;;;;;;;;;;;;13.31;100.00;101610.19;5166552;28;19913;-77
2023/05/12 00:21:42;;;;;;;;;;;;;;;13.29;100.00;101602.25;5166599;28;19920;-77
2023/05/12 00:24:13;;;;;;;;;;;;;;;13.31;100.00;101608.34;5165805;28;19910;-77
2023/05/12 00:26:43;;;;;;;;;;;;;;;13.27;100.00;101608.81;5165019;28;19918;-77
2023/05/12 00:29:14;;;;;;;;;;;;;;;13.23;100.00;101607.47;5166348;28;20268;-76
2023/05/12 00:31:44;;;;;;;;;;;;;;;13.21;100.00;101602.22;5167799;28;19914;-76
2023/05/12 00:34:14;;;;;;;;;;;;;;;13.21;100.00;101611.19;5167292;28;19949;-77
2023/05/12 00:36:45;;;;;;;;;;;;;;;13.19;100.00;101601.53;5167237;28;20590;-76
2023/05/12 00:39:15;;;;;;;;;;;;;;;13.18;100.00;101610.63;5167476;28;19965;-77
2023/05/12 00:41:46;;;;;;;;;;;;;;;13.15;100.00;101606.41;5167994;28;19914;-77
2023/05/12 00:44:17;;;;;;;;;;;;;;;13.12;100.00;101598.66;5168053;28;20239;-77
2023/05/12 00:46:48;;;;;;;;;;;;;;;13.11;100.00;101602.38;5167566;28;19914;-77
2023/05/12 00:49:18;;;;;;;;;;;;;;;13.07;100.00;101601.00;5168424;28;19910;-78
2023/05/12 00:51:49;;;;;;;;;;;;;;;13.05;100.00;101603.03;5166097;28;19918;-77
2023/05/12 00:54:19;;;;;;;;;;;;;;;13.03;100.00;101602.31;5168084;28;19922;-78
2023/05/12 00:56:50;;;;;;;;;;;;;;;12.99;100.00;101598.28;5167238;28;20655;-77
2023/05/12 00:59:20;;;;;;;;;;;;;;;13.01;100.00;101596.28;5166791;28;19940;-78
2023/05/12 01:01:51;;;;;;;;;;;;;;;13.01;100.00;101593.59;5167957;28;19924;-78
2023/05/12 01:04:22;;;;;;;;;;;;;;;13.01;100.00;101596.28;5147764;28;19921;-78
2023/05/12 01:06:54;;;;;;;;;;;;;;;12.99;100.00;101592.88;5164476;28;19976;-78
2023/05/12 01:09:24;;;;;;;;;;;;;;;13.00;100.00;101593.72;5146850;28;19918;-78
2023/05/12 01:11:55;;;;;;;;;;;;;;;12.97;100.00;101592.22;5166333;28;20013;-78
2023/05/12 01:14:25;;;;;;;;;;;;;;;12.97;100.00;101592.22;5168785;28;19921;-78
2023/05/12 01:16:58;;;;;;;;;;;;;;;12.97;100.00;101586.81;5167911;28;19918;-78
2023/05/12 01:19:45;;;;;;;;;;;;;;;12.98;100.00;101584.97;5166759;28;19914;-77
2023/05/12 01:22:16;;;;;;;;;;;;;;;13.01;100.00;101582.81;5168066;28;20291;-78
2023/05/12 01:25:02;;;;;;;;;;;;;;;12.99;100.00;101584.81;5167958;28;19914;-77
2023/05/12 01:27:33;;;;;;;;;;;;;;;12.97;100.00;101581.44;5167010;28;19965;-78
2023/05/12 01:30:04;;;;;;;;;;;;;;;13.00;100.00;101585.66;5168729;28;19913;-78
2023/05/12 01:32:37;;;;;;;;;;;;;;;13.01;100.00;101585.50;5166272;28;19922;-78
2023/05/12 01:35:07;;;;;;;;;;;;;;;13.02;100.00;101586.34;5168437;28;19913;-78
2023/05/12 01:37:37;;;;;;;;;;;;;;;13.04;100.00;101589.69;5168106;28;20020;-78
2023/05/12 01:40:08;;;;;;;;;;;;;;;13.07;100.00;101575.91;5167708;28;19914;-77
2023/05/12 01:42:41;;;;;;;;;;;;;;;13.09;100.00;101584.66;5166911;28;19913;-78
2023/05/12 01:45:12;;;;;;;;;;;;;;;13.10;100.00;101583.66;5168825;28;20014;-78
2023/05/12 01:47:42;;;;;;;;;;;;;;;13.12;100.00;101581.66;5167707;28;19921;-77
2023/05/12 01:50:13;;;;;;;;;;;;;;;13.10;100.00;101580.94;5166131;28;19921;-78
2023/05/12 01:52:45;;;;;;;;;;;;;;;13.10;100.00;101586.34;5167377;28;20323;-78
2023/05/12 01:55:16;;;;;;;;;;;;;;;13.12;100.00;101578.97;5167312;28;20383;-78
2023/05/12 01:57:47;;;;;;;;;;;;;;;13.13;100.00;101578.78;5167306;28;19920;-78
2023/05/12 02:00:17;;;;;;;;;;;;;;;13.11;100.00;101583.50;5168063;28;19913;-78
2023/05/12 02:02:48;;;;;;;;;;;;;;;13.12;100.00;101578.97;5166909;28;19968;-78
2023/05/12 02:05:19;;;;;;;;;;;;;;;13.11;100.00;101580.81;5167786;28;19921;-78
2023/05/12 02:07:50;;;;;;;;;;;;;;;13.08;100.00;101572.22;5165896;28;19925;-78
2023/05/12 02:10:21;;;;;;;;;;;;;;;13.09;100.00;101574.72;5166936;28;19914;-78
2023/05/12 02:12:52;;;;;;;;;;;;;;;13.09;100.00;101571.19;5166578;28;19942;-78
2023/05/12 02:15:22;;;;;;;;;;;;;;;13.10;100.00;101572.88;5168521;28;19921;-77
2023/05/12 02:17:54;;;;;;;;;;;;;;;13.12;100.00;101570.88;5164634;28;19948;-78
2023/05/12 02:20:24;;;;;;;;;;;;;;;13.11;100.00;101575.41;5163851;28;19968;-78
2023/05/12 02:22:55;;;;;;;;;;;;;;;13.09;100.00;101569.34;5163767;28;20359;-78
2023/05/12 02:25:25;;;;;;;;;;;;;;;13.02;100.00;101568.31;5163847;28;19968;-78
2023/05/12 02:27:56;;;;;;;;;;;;;;;12.87;100.00;101567.28;5162947;28;19921;-79
2023/05/12 02:30:26;;;;;;;;;;;;;;;12.72;100.00;101566.22;5161667;28;19914;-79
2023/05/12 02:32:57;;;;;;;;;;;;;;;12.54;100.00;101561.75;5162043;28;19922;-79
2023/05/12 02:35:27;;;;;;;;;;;;;;;12.48;100.00;101561.56;5163035;28;19913;-79
2023/05/12 02:37:57;;;;;;;;;;;;;;;12.39;100.00;101561.50;5162025;28;19968;-79
2023/05/12 02:40:28;;;;;;;;;;;;;;;12.37;100.00;101562.69;5162947;28;19913;-79
2023/05/12 02:42:58;;;;;;;;;;;;;;;12.33;100.00;101564.00;5162043;28;19914;-79
2023/05/12 02:45:29;;;;;;;;;;;;;;;12.30;100.00;101564.31;5161296;28;20044;-79
2023/05/12 02:47:59;;;;;;;;;;;;;;;12.28;100.00;101558.28;5162461;28;19941;-79
2023/05/12 02:50:29;;;;;;;;;;;;;;;12.24;100.00;101552.34;5161503;28;20020;-79
2023/05/12 02:53:00;;;;;;;;;;;;;;;12.24;100.00;101555.03;5162622;28;19925;-79
2023/05/12 02:55:30;;;;;;;;;;;;;;;12.22;100.00;101550.84;5162678;28;20028;-79
2023/05/12 02:58:01;;;;;;;;;;;;;;;12.22;100.00;101553.53;5162084;28;19918;-79
2023/05/12 03:00:31;;;;;;;;;;;;;;;12.20;100.00;101542.94;5162521;28;20355;-79
2023/05/12 03:03:01;;;;;;;;;;;;;;;12.16;100.00;101550.47;5162407;28;19914;-79
2023/05/12 03:05:32;;;;;;;;;;;;;;;12.16;100.00;101545.09;5161535;28;19914;-79
2023/05/12 03:08:02;;;;;;;;;;;;;;;12.15;100.00;101545.28;5161782;28;19960;-79
2023/05/12 03:10:33;;;;;;;;;;;;;;;12.14;100.00;101544.41;5162128;28;19968;-79
2023/05/12 03:13:03;;;;;;;;;;;;;;;12.17;100.00;101538.72;5162661;28;19917;-79
2023/05/12 03:15:33;;;;;;;;;;;;;;;12.19;100.00;101542.06;5162588;28;19914;-79
2023/05/12 03:18:04;;;;;;;;;;;;;;;12.21;100.00;101533.03;5161388;28;19997;-79
2023/05/12 03:20:34;;;;;;;;;;;;;;;12.17;100.00;101536.03;5163424;28;19953;-79
2023/05/12 03:23:05;;;;;;;;;;;;;;;12.16;100.00;101530.81;5164489;28;19913;-79
2023/05/12 03:25:35;;;;;;;;;;;;;;;12.16;100.00;101528.13;5166644;28;19913;-79
2023/05/12 03:28:06;;;;;;;;;;;;;;;12.17;100.00;101527.97;5165589;28;20008;-79
2023/05/12 03:30:36;;;;;;;;;;;;;;;12.18;100.00;101532.31;5166212;28;19961;-79
2023/05/12 03:33:06;;;;;;;;;;;;;;;12.14;100.00;101530.13;5165541;28;19922;-79
2023/05/12 03:35:37;;;;;;;;;;;;;;;12.14;100.00;101527.44;5166274;28;19921;-79
2023/05/12 03:38:07;;;;;;;;;;;;;;;12.11;100.00;101525.91;5165637;28;20391;-79
2023/05/12 03:40:38;;;;;;;;;;;;;;;12.13;100.00;101523.06;5164970;28;19949;-79
2023/05/12 03:43:08;;;;;;;;;;;;;;;12.14;100.00;101522.88;5165152;28;19921;-79
2023/05/12 03:45:38;;;;;;;;;;;;;;;12.15;100.00;101519.22;5166304;28;19914;-79
2023/05/12 03:48:09;;;;;;;;;;;;;;;12.13;100.00;101518.50;5164334;28;19937;-79
2023/05/12 03:50:39;;;;;;;;;;;;;;;12.08;100.00;101511.94;5165459;28;19942;-78
2023/05/12 03:53:10;;;;;;;;;;;;;;;12.11;100.00;101517.00;5165318;28;19965;-79
2023/05/12 03:55:41;;;;;;;;;;;;;;;12.10;100.00;101510.78;5164792;28;19914;-79
2023/05/12 03:58:11;;;;;;;;;;;;;;;12.10;100.00;101513.47;5164942;28;19914;-78
2023/05/12 04:00:42;;;;;;;;;;;;;;;12.10;100.00;101507.25;5167650;28;19922;-78
2023/05/12 04:03:12;;;;;;;;;;;;;;;12.06;100.00;101504.03;5167306;28;19914;-78
2023/05/12 04:05:42;;;;;;;;;;;;;;;12.03;100.00;101498.13;5167301;28;20260;-78
2023/05/12 04:08:13;;;;;;;;;;;;;;;12.03;100.00;101496.28;5165133;28;19949;-78
2023/05/12 04:10:43;;;;;;;;;;;;;;;11.98;100.00;101498.59;5166742;28;19945;-78
2023/05/12 04:13:13;;;;;;;;;;;;;;;12.04;100.00;101499.81;5166704;28;19971;-79
2023/05/12 04:15:44;;;;;;;;;;;;;;;12.03;100.00;101495.44;5166693;28;19921;-77
2023/05/12 04:18:15;;;;;;;;;;;;;;;12.04;100.00;101495.25;5166223;28;19957;-78
2023/05/12 04:20:45;;;;;;;;;;;;;;;11.98;100.00;101495.06;5166274;28;20012;-78
2023/05/12 04:23:15;;;;;;;;;;;;;;;12.03;100.00;101493.59;5167330;28;19914;-78
2023/05/12 04:25:46;;;;;;;;;;;;;;;12.03;100.00;101488.22;5165835;28;19928;-78
2023/05/12 04:28:17;;;;;;;;;;;;;;;12.01;100.00;101486.69;5165081;28;19921;-79
2023/05/12 04:30:47;;;;;;;;;;;;;;;12.04;100.00;101487.19;5166387;28;19936;-78
2023/05/12 04:33:17;;;;;;;;;;;;;;;12.03;100.00;101481.97;5164395;28;19922;-79
2023/05/12 04:35:48;;;;;;;;;;;;;;;12.00;100.00;101483.16;5166172;28;19914;-79
2023/05/12 04:38:18;;;;;;;;;;;;;;;11.93;100.00;101479.41;5166226;28;20343;-78
2023/05/12 04:40:49;;;;;;;;;;;;;;;11.95;100.00;101485.50;5165164;28;19922;-78
2023/05/12 04:43:19;;;;;;;;;;;;;;;11.93;100.00;101484.78;5165015;28;20449;-79
2023/05/12 04:45:50;;;;;;;;;;;;;;;11.93;100.00;101493.69;5165770;28;19914;-78
2023/05/12 04:48:20;;;;;;;;;;;;;;;11.87;100.00;101488.13;5164257;28;19979;-79
2023/05/12 04:50:51;;;;;;;;;;;;;;;11.86;100.00;101491.81;5165179;28;20012;-78
2023/05/12 04:53:21;;;;;;;;;;;;;;;11.85;100.00;101495.50;5165814;28;19968;-78
2023/05/12 04:55:51;;;;;;;;;;;;;;;11.81;100.00;101494.09;5166178;28;19961;-78
2023/05/12 04:58:22;;;;;;;;;;;;;;;11.83;100.00;101498.34;5164753;28;19914;-78
2023/05/12 05:00:52;;;;;;;;;;;;;;;11.82;100.00;101503.88;5165824;28;19920;-79
2023/05/12 05:03:23;;;;;;;;;;;;;;;11.75;100.00;101494.75;5164774;28;19972;-78
2023/05/12 05:05:53;;;;;;;;;;;;;;;11.74;100.00;101504.63;5165808;28;19949;-78
2023/05/12 05:08:23;;;;;;;;;;;;;;;11.71;100.00;101493.38;5164947;28;20314;-79
2023/05/12 05:10:54;;;;;;;;;;;;;;;11.71;100.00;101498.75;5165168;28;19928;-78
2023/05/12 05:13:24;;;;;;;;;;;;;;;11.72;100.00;101495.06;5164938;28;20354;-78
2023/05/12 05:15:55;;;;;;;;;;;;;;;11.70;100.00;101500.59;5165265;28;20322;-79
2023/05/12 05:18:25;;;;;;;;;;;;;;;11.71;100.00;101499.59;5163288;28;19914;-79
2023/05/12 05:20:56;;;;;;;;;;;;;;;11.70;100.00;101505.09;5164197;28;19937;-78
2023/05/12 05:23:26;;;;;;;;;;;;;;;11.72;100.00;101506.63;5164512;28;20000;-79
2023/05/12 05:25:57;;;;;;;;;;;;;;;11.69;100.00;101501.56;5164796;28;19918;-79
2023/05/12 05:28:27;;;;;;;;;;;;;;;11.70;100.00;101502.41;5163780;28;20387;-79
2023/05/12 05:30:58;;;;;;;;;;;;;;;11.60;100.00;101498.00;5163984;28;19921;-79
2023/05/12 05:33:28;;;;;;;;;;;;;;;11.57;100.00;101490.25;5162795;28;20299;-79
2023/05/12 05:35:59;;;;;;;;;;;;;;;11.57;100.00;101492.94;5163549;28;19922;-79
2023/05/12 05:38:29;;;;;;;;;;;;;;;11.59;100.00;101493.59;5163451;28;19925;-78
2023/05/12 05:40:59;;;;;;;;;;;;;;;11.64;100.00;101491.28;5163449;28;19945;-79
2023/05/12 05:43:30;;;;;;;;;;;;;;;11.69;100.00;101493.50;5179139;28;20260;-78
2023/05/12 05:46:00;;;;;;;;;;;;;;;11.66;100.00;101489.31;5164263;28;20359;-78
2023/05/12 05:48:30;;;;;;;;;;;;;;;11.68;100.00;101489.97;5163143;28;19920;-78
2023/05/12 05:51:01;;;;;;;;;;;;;;;11.62;100.00;101484.41;5163696;28;19921;-79
2023/05/12 05:53:31;;;;;;;;;;;;;;;11.67;100.00;101495.53;5163759;28;19970;-77
2023/05/12 05:56:02;;;;;;;;;;;;;;;11.67;100.00;101484.78;5163636;28;20420;-77
2023/05/12 05:58:32;;;;;;;;;;;;;;;11.70;100.00;101488.97;5162921;28;19914;-78
2023/05/12 06:01:03;;;;;;;;;;;;;;;11.64;100.00;101483.22;5162902;28;19917;-77
2023/05/12 06:03:33;;;;;;;;;;;;;;;11.66;100.00;101486.63;5163871;28;20379;-78
2023/05/12 06:06:04;;;;;;;;;;;;;;;11.73;100.00;101488.66;5164461;28;19913;-78
2023/05/12 06:08:34;;;;;;;;;;;;;;;11.70;100.00;101486.28;5163604;28;19917;-80
2023/05/12 06:11:04;;;;;;;;;;;;;;;11.74;100.00;101480.44;5163427;28;19972;-79
2023/05/12 06:13:35;;;;;;;;;;;;;;;11.73;100.00;101480.59;5164092;28;19972;-80
2023/05/12 06:16:05;;;;;;;;;;;;;;;11.81;100.00;101488.72;5163815;28;20470;-77
2023/05/12 06:18:36;;;;;;;;;;;;;;;11.83;100.00;101489.44;5162458;28;19925;-77
2023/05/12 06:21:07;;;;;;;;;;;;;;;11.85;100.00;101484.75;5162823;28;19925;-77
2023/05/12 06:23:37;;;;;;;;;;;;;;;11.82;100.00;101479.69;5164190;28;20279;-77
2023/05/12 06:26:08;;;;;;;;;;;;;;;11.78;100.00;101486.34;5163787;28;19918;-77
2023/05/12 06:28:38;;;;;;;;;;;;;;;11.87;100.00;101485.44;5162008;28;19949;-77
2023/05/12 06:31:09;;;;;;;;;;;;;;;11.88;100.00;101482.56;5163325;28;19918;-78
2023/05/12 06:33:39;;;;;;;;;;;;;;;11.88;100.00;101479.03;5163249;28;19921;-78
2023/05/12 06:36:11;;;;;;;;;;;;;;;11.90;100.00;101485.13;5163150;28;19914;-78
2023/05/12 06:38:41;;;;;;;;;;;;;;;11.95;100.00;101481.94;5163066;28;20186;-78
2023/05/12 06:41:11;;;;;;;;;;;;;;;11.97;100.00;101482.63;5164025;28;19928;-79
2023/05/12 06:43:42;;;;;;;;;;;;;;;12.02;100.00;101483.84;5166364;28;19914;-78
2023/05/12 06:46:13;;;;;;;;;;;;;;;12.09;100.00;101476.78;5165202;28;19914;-78
2023/05/12 06:48:43;;;;;;;;;;;;;;;12.09;100.00;101484.88;5165111;28;19913;-80
2023/05/12 06:51:14;;;;;;;;;;;;;;;12.14;100.00;101476.31;5163202;28;20273;-80
2023/05/12 06:53:44;;;;;;;;;;;;;;;12.17;100.00;101484.91;5163795;28;19925;-78
2023/05/12 06:56:15;;;;;;;;;;;;;;;12.22;100.00;101480.91;5168768;28;20338;-78
2023/05/12 06:58:46;;;;;;;;;;;;;;;12.25;100.00;101484.13;5169780;28;20415;-78
2023/05/12 07:01:17;;;;;;;;;;;;;;;12.27;100.00;101490.16;5168311;28;19961;-78
2023/05/12 07:03:47;;;;;;;;;;;;;;;12.33;100.00;101480.59;5167432;28;19921;-78
2023/05/12 07:06:18;;;;;;;;;;;;;;;12.37;100.00;101481.97;5167166;28;19936;-77
2023/05/12 07:08:48;;;;;;;;;;;;;;;12.43;100.00;101478.63;5165949;28;19914;-78
2023/05/12 07:11:19;;;;;;;;;;;;;;;12.49;100.00;101487.91;5167036;28;19921;-77
2023/05/12 07:13:49;;;;;;;;;;;;;;;12.54;100.00;101485.56;5169412;28;19952;-78
2023/05/12 07:16:20;;;;;;;;;;;;;;;12.56;100.00;101481.72;5166838;28;19943;-78
2023/05/12 07:18:50;;;;;;;;;;;;;;;12.64;100.00;101481.72;5166671;28;20375;-77
2023/05/12 07:21:21;;;;;;;;;;;;;;;12.70;100.00;101483.78;5166053;28;19914;-77
2023/05/12 07:23:51;;;;;;;;;;;;;;;12.76;100.00;101479.56;5167309;28;19914;-77
2023/05/12 07:26:23;;;;;;;;;;;;;;;12.81;100.00;101482.63;5149281;28;19920;-77
2023/05/12 07:28:53;;;;;;;;;;;;;;;12.88;100.00;101477.41;5166841;28;20299;-78
2023/05/12 07:31:24;;;;;;;;;;;;;;;12.92;100.00;101484.13;5166572;28;19921;-77
2023/05/12 07:33:54;;;;;;;;;;;;;;;12.98;100.00;101491.53;5165727;28;20336;-78
2023/05/12 07:36:25;;;;;;;;;;;;;;;13.03;100.00;101482.97;5165335;28;19925;-78
2023/05/12 07:38:56;;;;;;;;;;;;;;;13.06;100.00;101486.19;5167784;28;20379;-77
2023/05/12 07:41:26;;;;;;;;;;;;;;;13.14;100.00;101494.25;5165088;28;19914;-78
2023/05/12 07:43:56;;;;;;;;;;;;;;;13.23;100.00;101497.00;5166459;28;20402;-78
2023/05/12 07:46:27;;;;;;;;;;;;;;;13.24;100.00;101498.66;5164703;28;19914;-78
2023/05/12 07:48:57;;;;;;;;;;;;;;;13.28;100.00;101500.03;5165949;28;19913;-77
2023/05/12 07:51:28;;;;;;;;;;;;;;;13.38;100.00;101496.16;5164641;28;20279;-77
2023/05/12 07:53:59;;;;;;;;;;;;;;;13.43;100.00;101504.56;5164643;28;19924;-78
2023/05/12 07:56:29;;;;;;;;;;;;;;;13.45;100.00;101499.00;5164352;28;20291;-78
2023/05/12 07:59:00;;;;;;;;;;;;;;;13.34;100.00;101493.97;5165955;28;19921;-78
2023/05/12 08:01:30;;;;;;;;;;;;;;;13.43;100.00;101501.03;5164449;28;19913;-78
2023/05/12 08:04:01;;;;;;;;;;;;;;;13.55;100.00;101502.38;5165636;28;20334;-78
2023/05/12 08:06:32;;;;;;;;;;;;;;;13.61;100.00;101508.97;5164330;28;19918;-78
2023/05/12 08:09:02;;;;;;;;;;;;;;;13.63;100.00;101515.84;5165897;28;19914;-77
2023/05/12 08:11:33;;;;;;;;;;;;;;;13.62;100.00;101516.03;5165529;28;19967;-78
2023/05/12 08:14:03;;;;;;;;;;;;;;;13.65;100.00;101519.19;5153744;28;19945;-77
2023/05/12 08:16:34;;;;;;;;;;;;;;;13.66;100.00;101520.06;5152873;28;20009;-78
2023/05/12 08:19:04;;;;;;;;;;;;;;;13.62;100.00;101524.13;5165815;28;19960;-77
2023/05/12 08:21:35;;;;;;;;;;;;;;;13.63;100.00;101521.25;5164309;28;20414;-77
2023/05/12 08:24:05;;;;;;;;;;;;;;;13.75;100.00;101521.72;5165188;28;19914;-77
2023/05/12 08:26:36;;;;;;;;;;;;;;;13.76;100.00;101519.91;5164019;28;19914;-76
2023/05/12 08:29:07;;;;;;;;;;;;;;;13.78;100.00;101526.78;5162513;28;19961;-77
2023/05/12 08:31:37;;;;;;;;;;;;;;;13.80;100.00;101535.53;5163793;28;20389;-76
2023/05/12 08:34:08;;;;;;;;;;;;;;;13.81;100.00;101533.72;5163943;28;19918;-78
2023/05/12 08:36:39;;;;;;;;;;;;;;;13.86;100.00;101542.13;5161708;28;20382;-77
2023/05/12 08:39:10;;;;;;;;;;;;;;;13.77;100.00;101546.69;5161964;28;19920;-78
2023/05/12 08:41:43;;;;;;;;;;;;;;;13.76;100.00;101553.09;5145020;28;19917;-77
2023/05/12 08:44:14;;;;;;;;;;;;;;;13.78;100.00;101556.44;5163038;28;19913;-78
2023/05/12 08:46:46;;;;;;;;;;;;;;;13.83;100.00;101553.25;5142571;28;19921;-77
2023/05/12 08:49:19;;;;;;;;;;;;;;;14.04;100.00;101550.00;5163430;28;20330;-77
2023/05/12 08:51:52;;;;;;;;;;;;;;;14.12;100.00;101558.94;5165319;28;19918;-77
2023/05/12 08:54:22;;;;;;;;;;;;;;;14.08;100.00;101562.16;5164208;28;19949;-77
2023/05/12 08:56:53;;;;;;;;;;;;;;;14.15;100.00;101569.38;5164024;28;20353;-77
2023/05/12 08:59:24;;;;;;;;;;;;;;;14.21;100.00;101570.56;5163476;28;19914;-77
2023/05/12 09:01:55;;;;;;;;;;;;;;;14.30;100.00;101576.75;5161383;28;19960;-77
2023/05/12 09:04:25;;;;;;;;;;;;;;;14.19;100.00;101572.56;5160927;28;19914;-77
2023/05/12 09:06:57;;;;;;;;;;;;;;;14.29;100.00;101573.22;5158215;28;19961;-77
2023/05/12 09:09:31;;;;;;;;;;;;;;;14.24;100.00;101567.50;5159149;28;21284;-77
2023/05/12 09:12:02;;;;;;;;;;;;;;;14.20;100.00;101576.94;5159877;28;19918;-76
2023/05/12 09:14:34;;;;;;;;;;;;;;;14.22;100.00;101575.78;5160124;28;19976;-77
2023/05/12 09:17:05;;;;;;;;;;;;;;;14.32;100.00;101585.53;5157765;28;20402;-78
2023/05/12 09:19:36;;;;;;;;;;;;;;;14.40;100.00;101591.72;5158855;28;19972;-77
2023/05/12 09:22:08;;;;;;;;;;;;;;;14.58;100.00;101588.00;5160044;28;19914;-77
2023/05/12 09:24:39;;;;;;;;;;;;;;;14.97;100.00;101590.72;5161199;28;19973;-77
2023/05/12 09:27:10;;;;;;;;;;;;;;;15.33;100.00;101585.59;5160240;28;20378;-77
2023/05/12 09:29:59;;;;;;;;;;;;;;;15.76;100.00;101576.00;5143380;28;19980;-77
2023/05/12 09:32:31;;;;;;;;;;;;;;;16.12;100.00;101585.31;5161761;28;19917;-76
2023/05/12 09:35:17;;;;;;;;;;;;;;;16.21;100.00;101568.75;5160631;28;19922;-76
2023/05/12 09:37:49;;;;;;;;;;;;;;;15.98;100.00;101573.44;5159240;28;19918;-77
2023/05/12 09:40:19;;;;;;;;;;;;;;;15.82;100.00;101569.00;5160416;28;19924;-77
2023/05/12 09:42:50;;;;;;;;;;;;;;;15.95;100.00;101579.19;5148019;28;19918;-77
2023/05/12 09:45:22;;;;;;;;;;;;;;;16.03;100.00;101581.81;5158829;28;19917;-77
2023/05/12 09:47:53;;;;;;;;;;;;;;;16.08;100.00;101582.13;5159207;28;19918;-76
2023/05/12 09:50:23;;;;;;;;;;;;;;;15.99;100.00;101580.50;5159584;28;19914;-78
2023/05/12 09:52:54;;;;;;;;;;;;;;;15.91;100.00;101577.88;5160730;28;19914;-77
2023/05/12 09:55:24;;;;;;;;;;;;;;;15.82;100.00;101585.25;5158853;28;19920;-77
2023/05/12 09:57:55;;;;;;;;;;;;;;;15.72;100.00;101592.78;5159156;28;19917;-76
2023/05/12 10:00:26;;;;;;;;;;;;;;;15.53;100.00;101594.91;5160227;28;19960;-77
2023/05/12 10:02:57;;;;;;;;;;;;;;;15.49;100.00;101593.56;5159763;28;19918;-77
2023/05/12 10:05:29;;;;;;;;;;;;;;;15.38;100.00;101594.00;5159193;28;19917;-77
2023/05/12 10:08:02;;;;;;;;;;;;;;;15.26;100.00;101592.72;5160239;28;20379;-77
2023/05/12 10:10:32;;;;;;;;;;;;;;;15.43;100.00;101591.59;5158673;28;19914;-77
2023/05/12 10:13:04;;;;;;;;;;;;;;;15.90;100.00;101597.84;5163611;28;19918;-77
2023/05/12 10:15:35;;;;;;;;;;;;;;;16.71;100.00;101594.28;5150900;28;20006;-78
2023/05/12 10:18:06;;;;;;;;;;;;;;;17.34;100.00;101592.75;5163396;28;20365;-77
2023/05/12 10:20:37;;;;;;;;;;;;;;;17.36;100.00;101581.69;5163540;28;19928;-78
2023/05/12 10:23:08;;;;;;;;;;;;;;;17.03;100.00;101589.47;5162860;28;19914;-77
2023/05/12 10:25:41;;;;;;;;;;;;;;;16.87;100.00;101585.13;5163654;28;19917;-78
2023/05/12 10:28:11;;;;;;;;;;;;;;;16.80;100.00;101600.44;5162279;28;19925;-78
2023/05/12 10:30:43;;;;;;;;;;;;;;;16.69;100.00;101599.03;5162134;28;19972;-77
2023/05/12 10:33:14;;;;;;;;;;;;;;;16.62;100.00;101597.25;5161968;28;19952;-79
2023/05/12 10:35:45;;;;;;;;;;;;;;;16.48;100.00;101591.66;5141208;28;19914;-76
2023/05/12 10:38:15;;;;;;;;;;;;;;;16.55;100.00;101603.41;5161567;28;19925;-78
2023/05/12 10:41:04;;;;;;;;;;;;;;;16.57;100.00;101595.13;5153395;28;19914;-76
2023/05/12 10:43:50;;;;;;;;;;;;;;;16.28;100.00;101602.22;5147598;28;19914;-77
2023/05/12 10:46:21;;;;;;;;;;;;;;;16.34;100.00;101602.50;5140950;28;19917;-76
2023/05/12 10:48:54;;;;;;;;;;;;;;;16.16;100.00;101598.25;5156440;28;19917;-77
2023/05/12 10:51:27;;;;;;;;;;;;;;;16.24;100.00;101609.00;5154416;28;19918;-77
2023/05/12 10:53:59;;;;;;;;;;;;;;;16.25;100.00;101610.69;5155607;28;20395;-76
2023/05/12 10:56:39;;;;;;;;;;;;;;;15.90;100.00;101614.06;5155357;28;19996;-77
2023/05/12 10:59:28;;;;;;;;;;;;;;;15.79;100.00;101623.47;5138724;28;20390;-77
2023/05/12 11:02:00;;;;;;;;;;;;;;;15.85;100.00;101619.19;5155033;28;19929;-77
2023/05/12 11:04:49;;;;;;;;;;;;;;;15.91;100.00;101616.59;5156883;28;19967;-77
2023/05/12 11:07:29;;;;;;;;;;;;;;;15.97;100.00;101615.88;5155464;28;19914;-77
2023/05/12 11:10:00;;;;;;;;;;;;;;;15.94;100.00;101618.09;5153483;28;20376;-77
2023/05/12 11:12:31;;;;;;;;;;;;;;;15.96;100.00;101624.16;5157914;28;20406;-76
2023/05/12 11:15:03;;;;;;;;;;;;;;;16.13;100.00;101630.28;5155692;28;19922;-77
2023/05/12 11:17:41;;;;;;;;;;;;;;;16.36;100.00;101631.06;5158306;28;19914;-77
2023/05/12 11:20:21;;;;;;;;;;;;;;;16.75;100.00;101622.69;5158774;28;20148;-78
2023/05/12 11:22:52;;;;;;;;;;;;;;;17.13;100.00;101633.41;5154919;28;20008;-77
2023/05/12 11:25:25;;;;;;;;;;;;;;;17.36;100.00;101625.09;5158521;28;19997;-76
2023/05/12 11:27:55;;;;;;;;;;;;;;;17.51;100.00;101622.31;5157896;28;19917;-77
2023/05/12 11:30:26;;;;;;;;;;;;;;;17.54;100.00;101619.25;5158402;28;20379;-77
2023/05/12 11:33:14;;;;;;;;;;;;;;;17.64;100.00;101630.59;5158302;28;19918;-76
2023/05/12 11:35:45;;;;;;;;;;;;;;;17.92;100.00;101627.13;5160023;28;20000;-77
2023/05/12 11:38:17;;;;;;;;;;;;;;;18.09;100.00;101621.22;5158126;28;20368;-78
2023/05/12 11:40:47;;;;;;;;;;;;;;;17.68;100.00;101626.47;5157239;28;20287;-77
2023/05/12 11:43:19;;;;;;;;;;;;;;;17.55;100.00;101629.06;5153117;28;19914;-77
2023/05/12 11:45:50;;;;;;;;;;;;;;;17.43;100.00;101631.44;5162755;28;19945;-77
2023/05/12 11:48:21;;;;;;;;;;;;;;;17.26;100.00;101636.25;5162698;28;19965;-77
2023/05/12 11:50:51;;;;;;;;;;;;;;;17.17;100.00;101629.28;5162419;28;19995;-78
2023/05/12 11:53:22;;;;;;;;;;;;;;;17.11;100.00;101637.31;5165678;28;19949;-77
2023/05/12 11:55:54;;;;;;;;;;;;;;;17.32;100.00;101640.09;5165632;28;19970;-78
2023/05/12 11:58:28;;;;;;;;;;;;;;;17.30;100.00;101642.13;5164304;28;19925;-77
2023/05/12 12:01:08;;;;;;;;;;;;;;;17.19;100.00;101642.63;5162983;28;19914;-78
2023/05/12 12:03:58;;;;;;;;;;;;;;;16.99;100.00;101647.81;5167065;28;19924;-78
2023/05/12 12:06:47;;;;;;;;;;;;;;;17.03;100.00;101649.13;5164545;28;20011;-78
2023/05/12 12:09:39;;;;;;;;;;;;;;;16.93;100.00;101644.00;5161940;28;19968;-79
2023/05/12 12:12:30;;;;;;;;;;;;;;;16.88;100.00;101646.44;5161798;28;19928;-79
2023/05/12 12:15:21;;;;;;;;;;;;;;;16.85;100.00;101654.09;5182658;28;19959;-78
2023/05/12 12:18:11;;;;;;;;;;;;;;;16.92;100.00;101657.72;5182565;28;19969;-78
2023/05/12 13:27:13;;;;;;;4.38;2.75;;;;;;;19.21;100.00;101660.16;5275321;27;20401;-72
2023/05/12 13:30:06;;;;;;;3.35;2.50;;;;;;;19.45;100.00;101670.50;5234387;28;20036;-72
2023/05/12 13:32:56;;;;;;;7.40;2.40;;;;;;;19.67;100.00;101666.59;5253164;28;20082;-72
2023/05/12 13:35:47;;;;;;;5.78;2.40;;;;;;;20.06;100.00;101670.41;5244251;28;20295;-72
2023/05/12 13:38:38;;;;;;;3.67;2.50;;;;;;;20.00;100.00;101662.25;5231270;28;20031;-73
2023/05/12 13:41:10;;;;;;;4.70;2.42;;;;;;;19.90;100.00;101660.75;5251275;28;20032;-72
2023/05/12 13:43:40;;;;;;;3.80;2.22;;;;;;;19.97;100.00;101654.47;5251355;28;20497;-73
2023/05/12 13:46:11;;;;;;;2.78;2.50;;;;;;;20.25;100.00;101657.00;5259671;28;20016;-73
2023/05/12 13:48:41;;;;;;;5.45;2.10;;;;;;;20.86;100.00;101656.72;5257192;28;20584;-73
2023/05/12 13:51:12;;;;;;;2.75;1.90;;;;;;;21.29;100.00;101648.78;5261120;28;20035;-72
2023/05/12 13:53:42;;;;;;;2.70;2.10;;;;;;;21.73;100.00;101647.88;5260092;28;20032;-73